sensor_id;sensor_type;location;lat;lon;timestamp;P1;durP1;ratioP1;P2;durP2;ratioP2
59880;SDS011;45751;51.380;10.326;2022-12-16T00:00:11;4.43;;;3.42;;
59880;SDS011;45751;51.380;10.326;2022-12-16T00:02:42;7.78;;;3.60;;
59880;SDS011;45751;51.380;10.326;2022-12-16T00:05:09;8.00;;;4.25;;
59880;SDS011;45751;51.380;10.326;2022-12-16T00:07:36;6.95;;;4.63;;
59880;SDS011;45751;51.380;10.326;2022-12-16T00:10:03;5.80;;;3.17;;
59880;SDS011;45751;51.380;10.326;2022-12-16T00:12:33;3.53;;;1.42;;
59880;SDS011;45751;51.380;10.326;2022-12-16T00:15:00;6.35;;;4.43;;
59880;SDS011;45751;51.380;10.326;2022-12-16T00:17:27;5.73;;;4.50;;
59880;SDS011;45751;51.380;10.326;2022-12-16T00:19:55;11.95;;;5.38;;
59880;SDS011;45751;51.380;10.326;2022-12-16T00:22:23;7.55;;;3.95;;
59880;SDS011;45751;51.380;10.326;2022-12-16T00:24:50;5.35;;;2.33;;
59880;SDS011;45751;51.380;10.326;2022-12-16T00:27:20;6.30;;;3.85;;
59880;SDS011;45751;51.380;10.326;2022-12-16T00:29:47;3.17;;;1.83;;
59880;SDS011;45751;51.380;10.326;2022-12-16T00:32:15;15.23;;;3.90;;
59880;SDS011;45751;51.380;10.326;2022-12-16T00:34:42;9.23;;;4.60;;
59880;SDS011;45751;51.380;10.326;2022-12-16T00:37:11;8.60;;;3.67;;
59880;SDS011;45751;51.380;10.326;2022-12-16T00:39:38;4.40;;;2.93;;
59880;SDS011;45751;51.380;10.326;2022-12-16T00:42:06;9.90;;;4.68;;
59880;SDS011;45751;51.380;10.326;2022-12-16T00:44:33;3.63;;;2.00;;
59880;SDS011;45751;51.380;10.326;2022-12-16T00:47:00;5.00;;;3.67;;
59880;SDS011;45751;51.380;10.326;2022-12-16T00:49:27;9.07;;;3.67;;
59880;SDS011;45751;51.380;10.326;2022-12-16T00:51:55;2.70;;;1.87;;
59880;SDS011;45751;51.380;10.326;2022-12-16T00:54:22;4.00;;;1.67;;
59880;SDS011;45751;51.380;10.326;2022-12-16T00:56:51;6.85;;;2.63;;
59880;SDS011;45751;51.380;10.326;2022-12-16T00:59:19;4.97;;;2.65;;
59880;SDS011;45751;51.380;10.326;2022-12-16T01:01:45;13.48;;;5.88;;
59880;SDS011;45751;51.380;10.326;2022-12-16T01:04:14;4.38;;;2.90;;
59880;SDS011;45751;51.380;10.326;2022-12-16T01:06:40;13.70;;;5.78;;
59880;SDS011;45751;51.380;10.326;2022-12-16T01:09:10;8.30;;;4.13;;
59880;SDS011;45751;51.380;10.326;2022-12-16T01:11:38;6.70;;;3.00;;
59880;SDS011;45751;51.380;10.326;2022-12-16T01:14:05;7.03;;;3.55;;
59880;SDS011;45751;51.380;10.326;2022-12-16T01:16:35;3.42;;;2.13;;
59880;SDS011;45751;51.380;10.326;2022-12-16T01:19:01;6.68;;;1.60;;
59880;SDS011;45751;51.380;10.326;2022-12-16T01:21:29;4.82;;;2.50;;
59880;SDS011;45751;51.380;10.326;2022-12-16T01:23:57;3.70;;;1.27;;
59880;SDS011;45751;51.380;10.326;2022-12-16T01:26:25;6.77;;;3.10;;
59880;SDS011;45751;51.380;10.326;2022-12-16T01:28:53;3.55;;;1.77;;
59880;SDS011;45751;51.380;10.326;2022-12-16T01:31:20;3.35;;;1.90;;
59880;SDS011;45751;51.380;10.326;2022-12-16T01:33:50;6.47;;;2.95;;
59880;SDS011;45751;51.380;10.326;2022-12-16T01:36:18;3.10;;;2.60;;
59880;SDS011;45751;51.380;10.326;2022-12-16T01:38:46;10.52;;;3.10;;
59880;SDS011;45751;51.380;10.326;2022-12-16T01:41:15;10.87;;;3.87;;
59880;SDS011;45751;51.380;10.326;2022-12-16T01:43:44;6.17;;;4.50;;
59880;SDS011;45751;51.380;10.326;2022-12-16T01:51:25;4.15;;;2.17;;
59880;SDS011;45751;51.380;10.326;2022-12-16T01:54:21;5.67;;;2.43;;
59880;SDS011;45751;51.380;10.326;2022-12-16T01:56:59;4.32;;;2.10;;
59880;SDS011;45751;51.380;10.326;2022-12-16T01:59:32;6.28;;;1.95;;
59880;SDS011;45751;51.380;10.326;2022-12-16T02:02:04;6.40;;;3.00;;
59880;SDS011;45751;51.380;10.326;2022-12-16T02:04:32;5.40;;;2.43;;
59880;SDS011;45751;51.380;10.326;2022-12-16T02:06:59;4.23;;;1.67;;
59880;SDS011;45751;51.380;10.326;2022-12-16T02:09:28;8.60;;;3.53;;
59880;SDS011;45751;51.380;10.326;2022-12-16T02:12:02;6.20;;;2.50;;
59880;SDS011;45751;51.380;10.326;2022-12-16T02:15:06;7.33;;;2.77;;
59880;SDS011;45751;51.380;10.326;2022-12-16T02:17:54;3.27;;;1.77;;
59880;SDS011;45751;51.380;10.326;2022-12-16T02:29:10;3.57;;;2.07;;
59880;SDS011;45751;51.380;10.326;2022-12-16T02:37:40;3.07;;;2.03;;
59880;SDS011;45751;51.380;10.326;2022-12-16T02:40:34;3.50;;;1.13;;
59880;SDS011;45751;51.380;10.326;2022-12-16T02:43:10;3.67;;;1.93;;
59880;SDS011;45751;51.380;10.326;2022-12-16T02:45:44;5.03;;;2.60;;
59880;SDS011;45751;51.380;10.326;2022-12-16T02:48:12;5.63;;;2.67;;
59880;SDS011;45751;51.380;10.326;2022-12-16T02:50:46;7.72;;;2.75;;
59880;SDS011;45751;51.380;10.326;2022-12-16T02:53:16;1.90;;;0.95;;
59880;SDS011;45751;51.380;10.326;2022-12-16T03:01:34;3.85;;;2.28;;
59880;SDS011;45751;51.380;10.326;2022-12-16T03:07:11;5.40;;;2.15;;
59880;SDS011;45751;51.380;10.326;2022-12-16T03:09:42;5.87;;;2.03;;
59880;SDS011;45751;51.380;10.326;2022-12-16T03:12:11;3.95;;;2.10;;
59880;SDS011;45751;51.380;10.326;2022-12-16T03:14:42;6.82;;;2.22;;
59880;SDS011;45751;51.380;10.326;2022-12-16T03:17:13;1.83;;;0.82;;
59880;SDS011;45751;51.380;10.326;2022-12-16T03:19:44;3.97;;;1.98;;
59880;SDS011;45751;51.380;10.326;2022-12-16T03:22:22;4.27;;;3.10;;
59880;SDS011;45751;51.380;10.326;2022-12-16T03:24:55;2.15;;;1.08;;
59880;SDS011;45751;51.380;10.326;2022-12-16T03:30:11;3.40;;;1.70;;
59880;SDS011;45751;51.380;10.326;2022-12-16T03:35:39;2.67;;;1.63;;
59880;SDS011;45751;51.380;10.326;2022-12-16T03:38:14;3.22;;;1.55;;
59880;SDS011;45751;51.380;10.326;2022-12-16T03:40:41;6.70;;;2.80;;
59880;SDS011;45751;51.380;10.326;2022-12-16T03:43:11;2.83;;;0.90;;
59880;SDS011;45751;51.380;10.326;2022-12-16T03:45:43;2.03;;;1.50;;
59880;SDS011;45751;51.380;10.326;2022-12-16T03:48:13;4.63;;;2.10;;
59880;SDS011;45751;51.380;10.326;2022-12-16T03:50:42;9.57;;;2.25;;
59880;SDS011;45751;51.380;10.326;2022-12-16T03:53:10;2.83;;;1.45;;
59880;SDS011;45751;51.380;10.326;2022-12-16T03:55:41;4.57;;;2.93;;
59880;SDS011;45751;51.380;10.326;2022-12-16T03:58:07;7.33;;;2.90;;
59880;SDS011;45751;51.380;10.326;2022-12-16T04:00:35;3.17;;;2.87;;
59880;SDS011;45751;51.380;10.326;2022-12-16T04:03:03;4.17;;;3.37;;
59880;SDS011;45751;51.380;10.326;2022-12-16T04:05:30;9.60;;;2.77;;
59880;SDS011;45751;51.380;10.326;2022-12-16T04:07:59;5.20;;;3.42;;
59880;SDS011;45751;51.380;10.326;2022-12-16T04:10:29;5.47;;;2.80;;
59880;SDS011;45751;51.380;10.326;2022-12-16T04:13:15;4.40;;;2.13;;
59880;SDS011;45751;51.380;10.326;2022-12-16T04:16:02;5.13;;;1.77;;
59880;SDS011;45751;51.380;10.326;2022-12-16T04:18:49;2.83;;;1.87;;
59880;SDS011;45751;51.380;10.326;2022-12-16T04:21:34;6.10;;;2.63;;
59880;SDS011;45751;51.380;10.326;2022-12-16T04:24:23;3.88;;;2.38;;
59880;SDS011;45751;51.380;10.326;2022-12-16T04:26:55;1.73;;;0.80;;
59880;SDS011;45751;51.380;10.326;2022-12-16T04:29:44;2.63;;;1.90;;
59880;SDS011;45751;51.380;10.326;2022-12-16T04:32:30;2.70;;;1.43;;
59880;SDS011;45751;51.380;10.326;2022-12-16T04:35:21;6.57;;;2.53;;
59880;SDS011;45751;51.380;10.326;2022-12-16T04:38:06;14.48;;;3.08;;
59880;SDS011;45751;51.380;10.326;2022-12-16T04:40:55;3.93;;;2.37;;
59880;SDS011;45751;51.380;10.326;2022-12-16T04:43:41;2.83;;;1.53;;
59880;SDS011;45751;51.380;10.326;2022-12-16T04:46:29;4.13;;;1.40;;
59880;SDS011;45751;51.380;10.326;2022-12-16T04:49:14;3.10;;;1.40;;
59880;SDS011;45751;51.380;10.326;2022-12-16T04:52:00;4.27;;;1.83;;
59880;SDS011;45751;51.380;10.326;2022-12-16T04:54:45;2.00;;;1.63;;
59880;SDS011;45751;51.380;10.326;2022-12-16T04:57:33;2.60;;;1.77;;
59880;SDS011;45751;51.380;10.326;2022-12-16T05:00:19;2.23;;;1.40;;
59880;SDS011;45751;51.380;10.326;2022-12-16T05:03:04;1.87;;;1.43;;
59880;SDS011;45751;51.380;10.326;2022-12-16T05:05:52;1.93;;;1.80;;
59880;SDS011;45751;51.380;10.326;2022-12-16T05:08:40;4.07;;;1.63;;
59880;SDS011;45751;51.380;10.326;2022-12-16T05:11:25;0.97;;;0.67;;
59880;SDS011;45751;51.380;10.326;2022-12-16T05:14:12;2.00;;;1.03;;
59880;SDS011;45751;51.380;10.326;2022-12-16T05:16:57;10.83;;;3.10;;
59880;SDS011;45751;51.380;10.326;2022-12-16T05:19:44;4.03;;;2.23;;
59880;SDS011;45751;51.380;10.326;2022-12-16T05:22:29;2.20;;;1.30;;
59880;SDS011;45751;51.380;10.326;2022-12-16T05:25:17;3.33;;;2.37;;
59880;SDS011;45751;51.380;10.326;2022-12-16T05:28:04;3.80;;;1.70;;
59880;SDS011;45751;51.380;10.326;2022-12-16T05:30:49;0.63;;;0.40;;
59880;SDS011;45751;51.380;10.326;2022-12-16T05:33:37;2.93;;;1.93;;
59880;SDS011;45751;51.380;10.326;2022-12-16T05:36:22;2.53;;;2.17;;
59880;SDS011;45751;51.380;10.326;2022-12-16T05:39:09;1.83;;;1.00;;
59880;SDS011;45751;51.380;10.326;2022-12-16T05:41:56;2.30;;;0.97;;
59880;SDS011;45751;51.380;10.326;2022-12-16T05:44:51;2.87;;;1.57;;
59880;SDS011;45751;51.380;10.326;2022-12-16T05:47:39;4.40;;;2.50;;
59880;SDS011;45751;51.380;10.326;2022-12-16T05:50:24;2.33;;;1.30;;
59880;SDS011;45751;51.380;10.326;2022-12-16T05:53:11;1.20;;;0.70;;
59880;SDS011;45751;51.380;10.326;2022-12-16T05:55:59;3.07;;;1.40;;
59880;SDS011;45751;51.380;10.326;2022-12-16T05:58:46;2.17;;;1.40;;
59880;SDS011;45751;51.380;10.326;2022-12-16T06:01:32;8.13;;;3.77;;
59880;SDS011;45751;51.380;10.326;2022-12-16T06:04:18;5.87;;;2.37;;
59880;SDS011;45751;51.380;10.326;2022-12-16T06:07:05;3.27;;;2.30;;
59880;SDS011;45751;51.380;10.326;2022-12-16T06:09:51;3.23;;;1.53;;
59880;SDS011;45751;51.380;10.326;2022-12-16T06:12:38;1.80;;;1.60;;
59880;SDS011;45751;51.380;10.326;2022-12-16T06:15:23;5.10;;;2.50;;
59880;SDS011;45751;51.380;10.326;2022-12-16T06:18:12;1.43;;;0.77;;
59880;SDS011;45751;51.380;10.326;2022-12-16T06:20:59;4.40;;;2.40;;
59880;SDS011;45751;51.380;10.326;2022-12-16T06:23:45;2.13;;;1.37;;
59880;SDS011;45751;51.380;10.326;2022-12-16T06:26:32;3.70;;;2.10;;
59880;SDS011;45751;51.380;10.326;2022-12-16T06:29:19;2.43;;;1.13;;
59880;SDS011;45751;51.380;10.326;2022-12-16T06:32:06;4.03;;;1.53;;
59880;SDS011;45751;51.380;10.326;2022-12-16T06:34:51;3.27;;;1.60;;
59880;SDS011;45751;51.380;10.326;2022-12-16T06:37:38;0.97;;;0.40;;
59880;SDS011;45751;51.380;10.326;2022-12-16T06:40:25;5.07;;;2.20;;
59880;SDS011;45751;51.380;10.326;2022-12-16T06:43:12;2.60;;;1.13;;
59880;SDS011;45751;51.380;10.326;2022-12-16T06:45:58;1.17;;;0.60;;
59880;SDS011;45751;51.380;10.326;2022-12-16T06:48:44;2.47;;;1.83;;
59880;SDS011;45751;51.380;10.326;2022-12-16T06:51:30;1.40;;;0.70;;
59880;SDS011;45751;51.380;10.326;2022-12-16T06:54:17;1.17;;;0.57;;
59880;SDS011;45751;51.380;10.326;2022-12-16T06:57:02;3.93;;;1.63;;
59880;SDS011;45751;51.380;10.326;2022-12-16T06:59:51;3.23;;;1.73;;
59880;SDS011;45751;51.380;10.326;2022-12-16T07:02:40;1.77;;;1.27;;
59880;SDS011;45751;51.380;10.326;2022-12-16T07:05:28;2.80;;;1.77;;
59880;SDS011;45751;51.380;10.326;2022-12-16T07:08:14;1.20;;;0.60;;
59880;SDS011;45751;51.380;10.326;2022-12-16T07:11:00;2.67;;;1.20;;
59880;SDS011;45751;51.380;10.326;2022-12-16T07:13:46;3.63;;;1.50;;
59880;SDS011;45751;51.380;10.326;2022-12-16T07:16:34;1.38;;;1.10;;
59880;SDS011;45751;51.380;10.326;2022-12-16T07:19:21;0.45;;;0.35;;
59880;SDS011;45751;51.380;10.326;2022-12-16T07:22:07;2.13;;;1.10;;
59880;SDS011;45751;51.380;10.326;2022-12-16T07:24:53;3.88;;;1.90;;
59880;SDS011;45751;51.380;10.326;2022-12-16T07:27:44;3.53;;;2.60;;
59880;SDS011;45751;51.380;10.326;2022-12-16T07:30:34;5.07;;;1.48;;
59880;SDS011;45751;51.380;10.326;2022-12-16T07:33:23;3.20;;;1.77;;
59880;SDS011;45751;51.380;10.326;2022-12-16T07:36:08;6.60;;;3.10;;
59880;SDS011;45751;51.380;10.326;2022-12-16T07:38:56;6.45;;;3.42;;
59880;SDS011;45751;51.380;10.326;2022-12-16T07:44:45;1.63;;;1.00;;
59880;SDS011;45751;51.380;10.326;2022-12-16T07:47:32;2.95;;;1.75;;
59880;SDS011;45751;51.380;10.326;2022-12-16T07:50:37;7.40;;;2.38;;
59880;SDS011;45751;51.380;10.326;2022-12-16T07:53:22;5.57;;;1.77;;
59880;SDS011;45751;51.380;10.326;2022-12-16T07:56:09;6.03;;;2.38;;
59880;SDS011;45751;51.380;10.326;2022-12-16T07:58:56;2.03;;;1.00;;
59880;SDS011;45751;51.380;10.326;2022-12-16T08:01:44;3.80;;;2.15;;
59880;SDS011;45751;51.380;10.326;2022-12-16T08:04:30;4.13;;;1.35;;
59880;SDS011;45751;51.380;10.326;2022-12-16T08:07:17;2.25;;;1.85;;
59880;SDS011;45751;51.380;10.326;2022-12-16T08:10:02;6.82;;;2.25;;
59880;SDS011;45751;51.380;10.326;2022-12-16T08:12:50;4.82;;;2.05;;
59880;SDS011;45751;51.380;10.326;2022-12-16T08:15:35;4.35;;;2.03;;
59880;SDS011;45751;51.380;10.326;2022-12-16T08:18:21;9.48;;;6.25;;
59880;SDS011;45751;51.380;10.326;2022-12-16T08:21:06;8.18;;;4.75;;
59880;SDS011;45751;51.380;10.326;2022-12-16T08:23:53;6.05;;;3.00;;
59880;SDS011;45751;51.380;10.326;2022-12-16T08:26:40;6.55;;;3.75;;
59880;SDS011;45751;51.380;10.326;2022-12-16T08:29:28;6.03;;;3.28;;
59880;SDS011;45751;51.380;10.326;2022-12-16T08:32:14;5.10;;;2.28;;
59880;SDS011;45751;51.380;10.326;2022-12-16T08:35:26;5.85;;;2.45;;
59880;SDS011;45751;51.380;10.326;2022-12-16T08:38:11;3.97;;;2.35;;
59880;SDS011;45751;51.380;10.326;2022-12-16T08:40:59;6.60;;;2.67;;
59880;SDS011;45751;51.380;10.326;2022-12-16T08:43:44;5.03;;;2.22;;
59880;SDS011;45751;51.380;10.326;2022-12-16T08:46:31;13.90;;;3.75;;
59880;SDS011;45751;51.380;10.326;2022-12-16T08:49:19;11.40;;;3.05;;
59880;SDS011;45751;51.380;10.326;2022-12-16T08:52:04;13.15;;;5.68;;
59880;SDS011;45751;51.380;10.326;2022-12-16T08:54:52;8.95;;;4.72;;
59880;SDS011;45751;51.380;10.326;2022-12-16T08:57:39;8.57;;;4.22;;
59880;SDS011;45751;51.380;10.326;2022-12-16T09:00:27;4.53;;;1.58;;
59880;SDS011;45751;51.380;10.326;2022-12-16T09:03:13;6.57;;;1.85;;
59880;SDS011;45751;51.380;10.326;2022-12-16T09:06:00;3.42;;;1.58;;
59880;SDS011;45751;51.380;10.326;2022-12-16T09:08:47;3.75;;;1.30;;
59880;SDS011;45751;51.380;10.326;2022-12-16T09:11:34;4.85;;;2.25;;
59880;SDS011;45751;51.380;10.326;2022-12-16T09:14:19;6.20;;;1.65;;
59880;SDS011;45751;51.380;10.326;2022-12-16T09:17:07;13.60;;;6.85;;
59880;SDS011;45751;51.380;10.326;2022-12-16T09:19:52;22.00;;;11.60;;
59880;SDS011;45751;51.380;10.326;2022-12-16T09:22:39;9.50;;;4.35;;
59880;SDS011;45751;51.380;10.326;2022-12-16T09:25:25;5.35;;;2.17;;
59880;SDS011;45751;51.380;10.326;2022-12-16T09:28:11;5.00;;;1.55;;
59880;SDS011;45751;51.380;10.326;2022-12-16T09:30:59;4.43;;;2.13;;
59880;SDS011;45751;51.380;10.326;2022-12-16T09:33:46;5.75;;;2.88;;
59880;SDS011;45751;51.380;10.326;2022-12-16T09:36:34;4.28;;;2.38;;
59880;SDS011;45751;51.380;10.326;2022-12-16T09:39:22;8.55;;;2.78;;
59880;SDS011;45751;51.380;10.326;2022-12-16T09:42:53;7.45;;;3.38;;
59880;SDS011;45751;51.380;10.326;2022-12-16T09:49:18;10.23;;;5.28;;
59880;SDS011;45751;51.380;10.326;2022-12-16T09:51:57;19.38;;;10.10;;
59880;SDS011;45751;51.380;10.326;2022-12-16T09:54:47;24.55;;;7.85;;
59880;SDS011;45751;51.380;10.326;2022-12-16T09:57:36;11.52;;;5.78;;
59880;SDS011;45751;51.380;10.326;2022-12-16T10:00:23;13.52;;;5.28;;
59880;SDS011;45751;51.380;10.326;2022-12-16T10:03:22;6.53;;;3.38;;
59880;SDS011;45751;51.380;10.326;2022-12-16T10:06:32;4.65;;;2.25;;
59880;SDS011;45751;51.380;10.326;2022-12-16T10:19:16;6.22;;;2.67;;
59880;SDS011;45751;51.380;10.326;2022-12-16T10:25:34;5.72;;;1.83;;
59880;SDS011;45751;51.380;10.326;2022-12-16T10:31:27;7.97;;;4.13;;
59880;SDS011;45751;51.380;10.326;2022-12-16T10:34:15;5.43;;;2.55;;
59880;SDS011;45751;51.380;10.326;2022-12-16T10:37:05;7.88;;;2.55;;
59880;SDS011;45751;51.380;10.326;2022-12-16T10:39:54;7.03;;;4.20;;
59880;SDS011;45751;51.380;10.326;2022-12-16T10:42:50;20.63;;;12.35;;
59880;SDS011;45751;51.380;10.326;2022-12-16T10:45:51;18.40;;;9.90;;
59880;SDS011;45751;51.380;10.326;2022-12-16T10:48:41;9.90;;;4.57;;
59880;SDS011;45751;51.380;10.326;2022-12-16T10:51:27;8.52;;;4.80;;
59880;SDS011;45751;51.380;10.326;2022-12-16T11:00:08;9.55;;;2.67;;
59880;SDS011;45751;51.380;10.326;2022-12-16T11:03:14;6.20;;;2.72;;
59880;SDS011;45751;51.380;10.326;2022-12-16T11:06:01;5.25;;;2.53;;
59880;SDS011;45751;51.380;10.326;2022-12-16T11:08:50;6.20;;;2.58;;
59880;SDS011;45751;51.380;10.326;2022-12-16T11:11:37;9.40;;;3.50;;
59880;SDS011;45751;51.380;10.326;2022-12-16T11:14:25;8.30;;;4.35;;
59880;SDS011;45751;51.380;10.326;2022-12-16T11:17:38;4.85;;;2.72;;
59880;SDS011;45751;51.380;10.326;2022-12-16T11:20:25;6.03;;;2.15;;
59880;SDS011;45751;51.380;10.326;2022-12-16T11:29:03;6.82;;;2.40;;
59880;SDS011;45751;51.380;10.326;2022-12-16T11:35:00;4.25;;;1.70;;
59880;SDS011;45751;51.380;10.326;2022-12-16T11:37:49;5.75;;;2.75;;
59880;SDS011;45751;51.380;10.326;2022-12-16T11:40:39;5.00;;;3.20;;
59880;SDS011;45751;51.380;10.326;2022-12-16T11:43:26;4.18;;;2.17;;
59880;SDS011;45751;51.380;10.326;2022-12-16T11:46:27;5.25;;;2.15;;
59880;SDS011;45751;51.380;10.326;2022-12-16T11:49:19;6.57;;;3.05;;
59880;SDS011;45751;51.380;10.326;2022-12-16T11:52:18;5.38;;;2.25;;
59880;SDS011;45751;51.380;10.326;2022-12-16T11:55:10;4.68;;;2.25;;
59880;SDS011;45751;51.380;10.326;2022-12-16T11:58:32;8.43;;;3.40;;
59880;SDS011;45751;51.380;10.326;2022-12-16T12:01:36;7.07;;;2.75;;
59880;SDS011;45751;51.380;10.326;2022-12-16T12:04:38;4.45;;;1.90;;
59880;SDS011;45751;51.380;10.326;2022-12-16T12:07:25;5.70;;;1.98;;
59880;SDS011;45751;51.380;10.326;2022-12-16T12:10:37;4.55;;;1.85;;
59880;SDS011;45751;51.380;10.326;2022-12-16T12:16:44;11.30;;;4.60;;
59880;SDS011;45751;51.380;10.326;2022-12-16T12:19:51;11.77;;;4.15;;
59880;SDS011;45751;51.380;10.326;2022-12-16T12:22:55;5.22;;;2.53;;
59880;SDS011;45751;51.380;10.326;2022-12-16T12:25:50;7.22;;;3.00;;
59880;SDS011;45751;51.380;10.326;2022-12-16T12:40:47;7.03;;;2.55;;
59880;SDS011;45751;51.380;10.326;2022-12-16T12:47:14;9.68;;;3.83;;
59880;SDS011;45751;51.380;10.326;2022-12-16T12:59:40;7.95;;;3.97;;
59880;SDS011;45751;51.380;10.326;2022-12-16T13:05:50;7.10;;;4.18;;
59880;SDS011;45751;51.380;10.326;2022-12-16T13:08:43;9.65;;;4.43;;
59880;SDS011;45751;51.380;10.326;2022-12-16T13:11:30;13.52;;;5.68;;
59880;SDS011;45751;51.380;10.326;2022-12-16T13:17:17;8.20;;;3.22;;
59880;SDS011;45751;51.380;10.326;2022-12-16T13:26:07;9.52;;;3.70;;
59880;SDS011;45751;51.380;10.326;2022-12-16T13:29:07;10.15;;;5.32;;
59880;SDS011;45751;51.380;10.326;2022-12-16T13:38:16;8.95;;;3.58;;
59880;SDS011;45751;51.380;10.326;2022-12-16T13:44:11;11.18;;;4.68;;
59880;SDS011;45751;51.380;10.326;2022-12-16T13:46:59;9.18;;;4.35;;
59880;SDS011;45751;51.380;10.326;2022-12-16T13:49:45;9.05;;;4.45;;
59880;SDS011;45751;51.380;10.326;2022-12-16T13:58:52;7.40;;;3.55;;
59880;SDS011;45751;51.380;10.326;2022-12-16T14:04:42;8.93;;;4.30;;
59880;SDS011;45751;51.380;10.326;2022-12-16T14:07:31;9.05;;;4.65;;
59880;SDS011;45751;51.380;10.326;2022-12-16T14:16:08;12.68;;;6.65;;
59880;SDS011;45751;51.380;10.326;2022-12-16T14:25:25;11.88;;;4.10;;
59880;SDS011;45751;51.380;10.326;2022-12-16T14:34:11;12.13;;;5.03;;
59880;SDS011;45751;51.380;10.326;2022-12-16T14:40:26;13.00;;;4.20;;
59880;SDS011;45751;51.380;10.326;2022-12-16T14:43:21;9.45;;;3.95;;
59880;SDS011;45751;51.380;10.326;2022-12-16T14:46:26;12.82;;;4.80;;
59880;SDS011;45751;51.380;10.326;2022-12-16T14:49:25;8.30;;;4.13;;
59880;SDS011;45751;51.380;10.326;2022-12-16T14:52:21;12.35;;;5.10;;
59880;SDS011;45751;51.380;10.326;2022-12-16T15:00:50;10.75;;;4.38;;
59880;SDS011;45751;51.380;10.326;2022-12-16T15:03:43;9.15;;;4.07;;
59880;SDS011;45751;51.380;10.326;2022-12-16T15:06:38;8.13;;;3.90;;
59880;SDS011;45751;51.380;10.326;2022-12-16T15:09:36;7.18;;;3.70;;
59880;SDS011;45751;51.380;10.326;2022-12-16T15:12:26;7.88;;;3.58;;
59880;SDS011;45751;51.380;10.326;2022-12-16T15:15:32;10.07;;;4.20;;
59880;SDS011;45751;51.380;10.326;2022-12-16T15:18:25;9.10;;;4.30;;
59880;SDS011;45751;51.380;10.326;2022-12-16T15:21:26;12.27;;;6.05;;
59880;SDS011;45751;51.380;10.326;2022-12-16T15:24:16;15.23;;;5.15;;
59880;SDS011;45751;51.380;10.326;2022-12-16T15:27:12;12.02;;;5.47;;
59880;SDS011;45751;51.380;10.326;2022-12-16T15:33:18;6.18;;;3.53;;
59880;SDS011;45751;51.380;10.326;2022-12-16T15:36:15;9.75;;;3.28;;
59880;SDS011;45751;51.380;10.326;2022-12-16T15:39:25;9.20;;;5.70;;
59880;SDS011;45751;51.380;10.326;2022-12-16T15:45:22;7.28;;;2.95;;
59880;SDS011;45751;51.380;10.326;2022-12-16T15:54:19;8.30;;;4.70;;
59880;SDS011;45751;51.380;10.326;2022-12-16T15:57:24;9.25;;;3.60;;
59880;SDS011;45751;51.380;10.326;2022-12-16T16:00:31;11.25;;;5.50;;
59880;SDS011;45751;51.380;10.326;2022-12-16T16:03:27;7.32;;;4.53;;
59880;SDS011;45751;51.380;10.326;2022-12-16T16:09:30;6.43;;;3.05;;
59880;SDS011;45751;51.380;10.326;2022-12-16T16:12:18;7.57;;;4.07;;
59880;SDS011;45751;51.380;10.326;2022-12-16T16:15:06;6.03;;;3.42;;
59880;SDS011;45751;51.380;10.326;2022-12-16T16:17:57;12.33;;;4.10;;
59880;SDS011;45751;51.380;10.326;2022-12-16T16:20:46;21.30;;;4.25;;
59880;SDS011;45751;51.380;10.326;2022-12-16T16:23:34;11.15;;;5.38;;
59880;SDS011;45751;51.380;10.326;2022-12-16T16:26:21;7.85;;;3.30;;
59880;SDS011;45751;51.380;10.326;2022-12-16T16:29:14;5.93;;;3.33;;
59880;SDS011;45751;51.380;10.326;2022-12-16T16:32:01;6.22;;;2.97;;
59880;SDS011;45751;51.380;10.326;2022-12-16T16:34:49;8.18;;;5.60;;
59880;SDS011;45751;51.380;10.326;2022-12-16T16:37:34;6.82;;;3.70;;
59880;SDS011;45751;51.380;10.326;2022-12-16T16:40:30;11.52;;;3.85;;
59880;SDS011;45751;51.380;10.326;2022-12-16T16:43:23;7.85;;;3.67;;
59880;SDS011;45751;51.380;10.326;2022-12-16T16:49:09;6.47;;;2.88;;
59880;SDS011;45751;51.380;10.326;2022-12-16T16:51:59;7.57;;;3.30;;
59880;SDS011;45751;51.380;10.326;2022-12-16T16:54:45;9.10;;;4.45;;
59880;SDS011;45751;51.380;10.326;2022-12-16T16:57:37;11.02;;;4.68;;
59880;SDS011;45751;51.380;10.326;2022-12-16T17:00:22;6.40;;;4.00;;
59880;SDS011;45751;51.380;10.326;2022-12-16T17:03:11;9.32;;;3.75;;
59880;SDS011;45751;51.380;10.326;2022-12-16T17:06:02;8.18;;;5.38;;
59880;SDS011;45751;51.380;10.326;2022-12-16T17:08:49;8.25;;;4.13;;
59880;SDS011;45751;51.380;10.326;2022-12-16T17:11:34;7.20;;;5.07;;
59880;SDS011;45751;51.380;10.326;2022-12-16T17:14:23;10.15;;;6.00;;
59880;SDS011;45751;51.380;10.326;2022-12-16T17:17:10;8.35;;;4.25;;
59880;SDS011;45751;51.380;10.326;2022-12-16T17:20:00;7.32;;;4.47;;
59880;SDS011;45751;51.380;10.326;2022-12-16T17:22:47;10.32;;;4.95;;
59880;SDS011;45751;51.380;10.326;2022-12-16T17:25:34;10.45;;;4.07;;
59880;SDS011;45751;51.380;10.326;2022-12-16T17:28:21;7.72;;;4.05;;
59880;SDS011;45751;51.380;10.326;2022-12-16T17:31:07;9.18;;;3.85;;
59880;SDS011;45751;51.380;10.326;2022-12-16T17:33:55;9.30;;;3.78;;
59880;SDS011;45751;51.380;10.326;2022-12-16T17:36:43;10.18;;;4.70;;
59880;SDS011;45751;51.380;10.326;2022-12-16T17:39:31;9.40;;;5.45;;
59880;SDS011;45751;51.380;10.326;2022-12-16T17:42:19;5.47;;;3.38;;
59880;SDS011;45751;51.380;10.326;2022-12-16T17:45:11;7.18;;;2.40;;
59880;SDS011;45751;51.380;10.326;2022-12-16T17:48:03;7.40;;;3.72;;
59880;SDS011;45751;51.380;10.326;2022-12-16T17:50:50;8.15;;;5.00;;
59880;SDS011;45751;51.380;10.326;2022-12-16T17:53:36;9.02;;;4.13;;
59880;SDS011;45751;51.380;10.326;2022-12-16T17:56:40;5.47;;;3.05;;
59880;SDS011;45751;51.380;10.326;2022-12-16T17:59:27;6.22;;;3.38;;
59880;SDS011;45751;51.380;10.326;2022-12-16T18:02:19;9.48;;;4.90;;
59880;SDS011;45751;51.380;10.326;2022-12-16T18:05:08;10.80;;;4.75;;
59880;SDS011;45751;51.380;10.326;2022-12-16T18:08:05;8.02;;;3.92;;
59880;SDS011;45751;51.380;10.326;2022-12-16T18:10:56;9.40;;;4.55;;
59880;SDS011;45751;51.380;10.326;2022-12-16T18:13:42;6.72;;;3.10;;
59880;SDS011;45751;51.380;10.326;2022-12-16T18:16:32;8.63;;;3.95;;
59880;SDS011;45751;51.380;10.326;2022-12-16T18:19:18;6.50;;;3.70;;
59880;SDS011;45751;51.380;10.326;2022-12-16T18:22:06;8.68;;;4.38;;
59880;SDS011;45751;51.380;10.326;2022-12-16T18:24:59;6.32;;;3.67;;
59880;SDS011;45751;51.380;10.326;2022-12-16T18:27:45;10.98;;;6.10;;
59880;SDS011;45751;51.380;10.326;2022-12-16T18:30:35;8.48;;;3.92;;
59880;SDS011;45751;51.380;10.326;2022-12-16T18:33:23;6.78;;;2.95;;
59880;SDS011;45751;51.380;10.326;2022-12-16T18:36:08;7.95;;;4.85;;
59880;SDS011;45751;51.380;10.326;2022-12-16T18:38:56;13.10;;;4.07;;
59880;SDS011;45751;51.380;10.326;2022-12-16T18:41:44;4.63;;;2.97;;
59880;SDS011;45751;51.380;10.326;2022-12-16T18:44:32;6.70;;;3.65;;
59880;SDS011;45751;51.380;10.326;2022-12-16T18:47:26;10.07;;;4.30;;
59880;SDS011;45751;51.380;10.326;2022-12-16T18:50:18;8.70;;;3.53;;
59880;SDS011;45751;51.380;10.326;2022-12-16T18:53:05;6.38;;;3.63;;
59880;SDS011;45751;51.380;10.326;2022-12-16T18:55:59;6.60;;;4.22;;
59880;SDS011;45751;51.380;10.326;2022-12-16T18:58:48;11.50;;;4.75;;
59880;SDS011;45751;51.380;10.326;2022-12-16T19:01:37;11.57;;;6.70;;
59880;SDS011;45751;51.380;10.326;2022-12-16T19:04:23;13.10;;;7.97;;
59880;SDS011;45751;51.380;10.326;2022-12-16T19:07:11;8.35;;;3.95;;
59880;SDS011;45751;51.380;10.326;2022-12-16T19:10:00;7.25;;;4.55;;
59880;SDS011;45751;51.380;10.326;2022-12-16T19:12:48;12.23;;;4.80;;
59880;SDS011;45751;51.380;10.326;2022-12-16T19:15:33;4.03;;;2.35;;